sensor_id;sensor_type;location;lat;lon;timestamp;temperature;humidity
40696;DHT22;40425;51.102;17.208;2022-12-07T00:02:00;3.80;99.90
40696;DHT22;40425;51.102;17.208;2022-12-07T00:07:01;3.80;99.90
40696;DHT22;40425;51.102;17.208;2022-12-07T00:12:03;3.80;99.90
40696;DHT22;40425;51.102;17.208;2022-12-07T00:17:05;3.80;99.90
40696;DHT22;40425;51.102;17.208;2022-12-07T00:22:06;3.80;99.90
40696;DHT22;40425;51.102;17.208;2022-12-07T00:27:07;3.80;99.90
40696;DHT22;40425;51.102;17.208;2022-12-07T00:32:07;3.70;99.90
40696;DHT22;40425;51.102;17.208;2022-12-07T00:37:08;3.80;99.90
40696;DHT22;40425;51.102;17.208;2022-12-07T00:42:09;3.90;99.90
40696;DHT22;40425;51.102;17.208;2022-12-07T00:47:10;3.90;99.90
40696;DHT22;40425;51.102;17.208;2022-12-07T00:52:11;3.90;99.90
40696;DHT22;40425;51.102;17.208;2022-12-07T00:57:12;3.80;99.90
40696;DHT22;40425;51.102;17.208;2022-12-07T01:02:13;3.90;99.90
40696;DHT22;40425;51.102;17.208;2022-12-07T01:07:14;3.80;99.90
40696;DHT22;40425;51.102;17.208;2022-12-07T01:12:18;3.60;99.90
40696;DHT22;40425;51.102;17.208;2022-12-07T01:17:22;3.60;99.90
40696;DHT22;40425;51.102;17.208;2022-12-07T01:22:23;3.50;99.90
40696;DHT22;40425;51.102;17.208;2022-12-07T01:27:24;3.60;99.90
40696;DHT22;40425;51.102;17.208;2022-12-07T01:32:25;3.50;99.90
40696;DHT22;40425;51.102;17.208;2022-12-07T01:37:26;3.50;99.90
40696;DHT22;40425;51.102;17.208;2022-12-07T01:42:28;3.50;99.90
40696;DHT22;40425;51.102;17.208;2022-12-07T01:47:29;3.60;99.90
40696;DHT22;40425;51.102;17.208;2022-12-07T01:52:32;3.70;99.90
40696;DHT22;40425;51.102;17.208;2022-12-07T01:57:37;3.70;99.90
40696;DHT22;40425;51.102;17.208;2022-12-07T02:07:49;3.60;99.90
40696;DHT22;40425;51.102;17.208;2022-12-07T02:13:10;3.50;99.90
40696;DHT22;40425;51.102;17.208;2022-12-07T02:23:31;3.60;99.90
40696;DHT22;40425;51.102;17.208;2022-12-07T02:29:12;3.50;99.90
40696;DHT22;40425;51.102;17.208;2022-12-07T02:35:15;3.40;99.90
40696;DHT22;40425;51.102;17.208;2022-12-07T02:45:35;3.50;99.90
40696;DHT22;40425;51.102;17.208;2022-12-07T02:50:36;3.50;99.90
40696;DHT22;40425;51.102;17.208;2022-12-07T02:55:41;3.50;99.90
40696;DHT22;40425;51.102;17.208;2022-12-07T03:01:05;3.50;99.90
40696;DHT22;40425;51.102;17.208;2022-12-07T03:06:13;3.60;99.90
40696;DHT22;40425;51.102;17.208;2022-12-07T03:11:25;3.70;99.90
40696;DHT22;40425;51.102;17.208;2022-12-07T03:17:00;3.60;99.90
40696;DHT22;40425;51.102;17.208;2022-12-07T03:22:05;3.60;99.90
40696;DHT22;40425;51.102;17.208;2022-12-07T03:27:21;3.50;99.90
40696;DHT22;40425;51.102;17.208;2022-12-07T03:32:33;3.40;99.90
40696;DHT22;40425;51.102;17.208;2022-12-07T03:42:50;3.40;99.90
40696;DHT22;40425;51.102;17.208;2022-12-07T03:52:58;3.50;99.90
40696;DHT22;40425;51.102;17.208;2022-12-07T03:58:06;3.40;99.90
40696;DHT22;40425;51.102;17.208;2022-12-07T04:03:08;3.40;99.90
40696;DHT22;40425;51.102;17.208;2022-12-07T04:08:09;3.40;99.90
40696;DHT22;40425;51.102;17.208;2022-12-07T04:13:10;3.40;99.90
40696;DHT22;40425;51.102;17.208;2022-12-07T04:18:11;3.50;99.90
40696;DHT22;40425;51.102;17.208;2022-12-07T04:23:13;3.30;99.90
40696;DHT22;40425;51.102;17.208;2022-12-07T04:28:14;3.50;99.90
40696;DHT22;40425;51.102;17.208;2022-12-07T04:33:15;3.60;99.90
40696;DHT22;40425;51.102;17.208;2022-12-07T04:38:16;3.60;99.90
40696;DHT22;40425;51.102;17.208;2022-12-07T04:43:16;3.60;99.90
40696;DHT22;40425;51.102;17.208;2022-12-07T04:48:17;3.60;99.90
40696;DHT22;40425;51.102;17.208;2022-12-07T04:53:18;3.70;99.90
40696;DHT22;40425;51.102;17.208;2022-12-07T04:58:19;3.70;99.90
40696;DHT22;40425;51.102;17.208;2022-12-07T05:03:20;3.70;99.90
40696;DHT22;40425;51.102;17.208;2022-12-07T05:08:21;3.70;99.90
40696;DHT22;40425;51.102;17.208;2022-12-07T05:13:22;3.50;99.90
40696;DHT22;40425;51.102;17.208;2022-12-07T05:18:23;3.60;99.90
40696;DHT22;40425;51.102;17.208;2022-12-07T05:23:24;3.70;99.90
40696;DHT22;40425;51.102;17.208;2022-12-07T05:28:25;3.60;99.90
40696;DHT22;40425;51.102;17.208;2022-12-07T05:33:26;3.60;99.90
40696;DHT22;40425;51.102;17.208;2022-12-07T05:38:27;3.70;99.90
40696;DHT22;40425;51.102;17.208;2022-12-07T05:43:28;3.60;99.90
40696;DHT22;40425;51.102;17.208;2022-12-07T05:48:29;3.60;99.90
40696;DHT22;40425;51.102;17.208;2022-12-07T05:53:29;3.70;99.90
40696;DHT22;40425;51.102;17.208;2022-12-07T05:58:30;3.70;99.90
40696;DHT22;40425;51.102;17.208;2022-12-07T06:03:49;3.70;99.90
40696;DHT22;40425;51.102;17.208;2022-12-07T06:08:50;3.70;99.90
40696;DHT22;40425;51.102;17.208;2022-12-07T06:13:51;3.80;99.90
40696;DHT22;40425;51.102;17.208;2022-12-07T06:18:52;3.80;99.90
40696;DHT22;40425;51.102;17.208;2022-12-07T06:23:53;3.80;99.90
40696;DHT22;40425;51.102;17.208;2022-12-07T06:28:54;3.70;99.90
40696;DHT22;40425;51.102;17.208;2022-12-07T06:34:04;3.60;99.90
40696;DHT22;40425;51.102;17.208;2022-12-07T06:39:05;3.70;99.90
40696;DHT22;40425;51.102;17.208;2022-12-07T06:44:07;3.60;99.90
40696;DHT22;40425;51.102;17.208;2022-12-07T06:49:08;3.70;99.90
40696;DHT22;40425;51.102;17.208;2022-12-07T06:54:13;3.60;99.90
40696;DHT22;40425;51.102;17.208;2022-12-07T06:59:14;3.70;99.90
40696;DHT22;40425;51.102;17.208;2022-12-07T07:04:15;3.70;99.90
40696;DHT22;40425;51.102;17.208;2022-12-07T07:09:16;3.70;99.90
40696;DHT22;40425;51.102;17.208;2022-12-07T07:14:17;3.80;99.90
40696;DHT22;40425;51.102;17.208;2022-12-07T07:19:19;3.70;99.90
40696;DHT22;40425;51.102;17.208;2022-12-07T07:24:20;3.70;99.90
40696;DHT22;40425;51.102;17.208;2022-12-07T07:29:21;3.60;99.90
40696;DHT22;40425;51.102;17.208;2022-12-07T07:34:22;3.60;99.90
40696;DHT22;40425;51.102;17.208;2022-12-07T07:39:22;3.60;99.90
40696;DHT22;40425;51.102;17.208;2022-12-07T07:44:23;3.60;99.90
40696;DHT22;40425;51.102;17.208;2022-12-07T07:49:24;3.70;99.90
40696;DHT22;40425;51.102;17.208;2022-12-07T07:54:25;3.80;99.90
40696;DHT22;40425;51.102;17.208;2022-12-07T07:59:26;4.10;99.90
40696;DHT22;40425;51.102;17.208;2022-12-07T08:04:27;4.10;99.90
40696;DHT22;40425;51.102;17.208;2022-12-07T08:09:27;4.20;99.90
40696;DHT22;40425;51.102;17.208;2022-12-07T08:14:28;4.20;99.90
40696;DHT22;40425;51.102;17.208;2022-12-07T08:19:29;4.10;99.90
40696;DHT22;40425;51.102;17.208;2022-12-07T08:24:32;4.20;99.90
40696;DHT22;40425;51.102;17.208;2022-12-07T08:29:33;4.30;99.90
40696;DHT22;40425;51.102;17.208;2022-12-07T08:34:34;4.30;99.90
40696;DHT22;40425;51.102;17.208;2022-12-07T08:39:35;4.20;99.90
40696;DHT22;40425;51.102;17.208;2022-12-07T08:44:35;4.30;99.90
40696;DHT22;40425;51.102;17.208;2022-12-07T08:49:39;4.40;99.90
40696;DHT22;40425;51.102;17.208;2022-12-07T08:54:41;4.50;99.90
40696;DHT22;40425;51.102;17.208;2022-12-07T08:59:43;4.80;99.90
40696;DHT22;40425;51.102;17.208;2022-12-07T09:04:43;4.90;99.90
40696;DHT22;40425;51.102;17.208;2022-12-07T09:09:44;4.90;99.90
40696;DHT22;40425;51.102;17.208;2022-12-07T09:14:45;4.90;99.90
40696;DHT22;40425;51.102;17.208;2022-12-07T09:19:46;5.00;99.90
40696;DHT22;40425;51.102;17.208;2022-12-07T09:24:47;5.20;99.90
40696;DHT22;40425;51.102;17.208;2022-12-07T09:29:48;5.50;99.90
40696;DHT22;40425;51.102;17.208;2022-12-07T09:34:48;5.60;99.90
40696;DHT22;40425;51.102;17.208;2022-12-07T09:39:49;5.80;99.90
40696;DHT22;40425;51.102;17.208;2022-12-07T09:44:50;5.90;99.90
40696;DHT22;40425;51.102;17.208;2022-12-07T09:49:51;6.00;99.90
40696;DHT22;40425;51.102;17.208;2022-12-07T09:54:53;6.00;99.90
40696;DHT22;40425;51.102;17.208;2022-12-07T09:59:55;6.00;99.90
40696;DHT22;40425;51.102;17.208;2022-12-07T10:04:58;6.20;99.90
40696;DHT22;40425;51.102;17.208;2022-12-07T10:10:01;6.10;99.90
40696;DHT22;40425;51.102;17.208;2022-12-07T10:15:04;6.00;99.90
40696;DHT22;40425;51.102;17.208;2022-12-07T10:25:19;6.10;99.90
40696;DHT22;40425;51.102;17.208;2022-12-07T10:30:21;6.10;99.90
40696;DHT22;40425;51.102;17.208;2022-12-07T10:35:28;6.00;99.90
40696;DHT22;40425;51.102;17.208;2022-12-07T10:40:35;5.80;99.90
40696;DHT22;40425;51.102;17.208;2022-12-07T10:51:06;5.70;99.90
40696;DHT22;40425;51.102;17.208;2022-12-07T10:56:38;5.70;99.90
40696;DHT22;40425;51.102;17.208;2022-12-07T11:07:11;5.50;99.90
40696;DHT22;40425;51.102;17.208;2022-12-07T11:17:33;5.50;99.90
40696;DHT22;40425;51.102;17.208;2022-12-07T11:38:14;5.10;99.90
40696;DHT22;40425;51.102;17.208;2022-12-07T11:43:26;5.30;99.90
40696;DHT22;40425;51.102;17.208;2022-12-07T11:48:40;5.50;99.90
40696;DHT22;40425;51.102;17.208;2022-12-07T11:53:46;5.40;99.90
40696;DHT22;40425;51.102;17.208;2022-12-07T11:58:55;5.30;99.90
40696;DHT22;40425;51.102;17.208;2022-12-07T12:24:57;5.20;99.90
40696;DHT22;40425;51.102;17.208;2022-12-07T12:30:00;5.10;99.90
40696;DHT22;40425;51.102;17.208;2022-12-07T12:35:28;5.10;99.90
40696;DHT22;40425;51.102;17.208;2022-12-07T12:45:29;5.10;99.90
40696;DHT22;40425;51.102;17.208;2022-12-07T12:50:36;5.20;99.90
40696;DHT22;40425;51.102;17.208;2022-12-07T13:11:42;5.30;99.90
40696;DHT22;40425;51.102;17.208;2022-12-07T13:16:45;5.30;99.90
40696;DHT22;40425;51.102;17.208;2022-12-07T13:21:45;5.20;99.90
40696;DHT22;40425;51.102;17.208;2022-12-07T13:26:46;5.20;99.90
40696;DHT22;40425;51.102;17.208;2022-12-07T13:31:57;5.30;99.90
40696;DHT22;40425;51.102;17.208;2022-12-07T13:42:19;5.20;99.90
40696;DHT22;40425;51.102;17.208;2022-12-07T13:47:42;5.20;99.90
40696;DHT22;40425;51.102;17.208;2022-12-07T13:52:45;5.10;99.90
40696;DHT22;40425;51.102;17.208;2022-12-07T13:57:50;5.20;99.90
40696;DHT22;40425;51.102;17.208;2022-12-07T14:03:00;5.20;99.90
40696;DHT22;40425;51.102;17.208;2022-12-07T14:08:04;5.20;99.90
40696;DHT22;40425;51.102;17.208;2022-12-07T14:18:39;5.00;99.90
40696;DHT22;40425;51.102;17.208;2022-12-07T14:23:40;4.90;99.90
40696;DHT22;40425;51.102;17.208;2022-12-07T14:28:42;4.90;99.90
40696;DHT22;40425;51.102;17.208;2022-12-07T14:33:44;4.80;99.90
40696;DHT22;40425;51.102;17.208;2022-12-07T14:38:45;4.70;99.90
40696;DHT22;40425;51.102;17.208;2022-12-07T14:43:46;4.70;99.90
40696;DHT22;40425;51.102;17.208;2022-12-07T14:48:47;4.50;99.90
40696;DHT22;40425;51.102;17.208;2022-12-07T14:53:50;4.50;99.90
40696;DHT22;40425;51.102;17.208;2022-12-07T14:58:52;4.50;99.90
40696;DHT22;40425;51.102;17.208;2022-12-07T15:03:53;4.50;99.90
40696;DHT22;40425;51.102;17.208;2022-12-07T15:08:54;4.40;99.90
40696;DHT22;40425;51.102;17.208;2022-12-07T15:13:56;4.30;99.90
40696;DHT22;40425;51.102;17.208;2022-12-07T15:19:19;4.40;99.90
40696;DHT22;40425;51.102;17.208;2022-12-07T15:24:23;4.40;99.90
40696;DHT22;40425;51.102;17.208;2022-12-07T15:29:25;4.30;99.90
40696;DHT22;40425;51.102;17.208;2022-12-07T15:34:27;4.20;99.90
40696;DHT22;40425;51.102;17.208;2022-12-07T15:39:29;4.20;99.90
40696;DHT22;40425;51.102;17.208;2022-12-07T15:44:30;4.10;99.90
40696;DHT22;40425;51.102;17.208;2022-12-07T15:49:50;4.00;99.90
40696;DHT22;40425;51.102;17.208;2022-12-07T15:54:51;4.00;99.90
40696;DHT22;40425;51.102;17.208;2022-12-07T15:59:52;4.00;99.90
40696;DHT22;40425;51.102;17.208;2022-12-07T16:04:54;4.10;99.90
40696;DHT22;40425;51.102;17.208;2022-12-07T16:09:55;4.00;99.90
40696;DHT22;40425;51.102;17.208;2022-12-07T16:14:57;4.00;99.90
40696;DHT22;40425;51.102;17.208;2022-12-07T16:19:58;4.00;99.90
40696;DHT22;40425;51.102;17.208;2022-12-07T16:25:00;4.10;99.90
40696;DHT22;40425;51.102;17.208;2022-12-07T16:30:00;4.00;99.90
40696;DHT22;40425;51.102;17.208;2022-12-07T16:35:02;4.00;99.90
40696;DHT22;40425;51.102;17.208;2022-12-07T16:40:04;4.10;99.90
40696;DHT22;40425;51.102;17.208;2022-12-07T16:45:06;4.10;99.90
40696;DHT22;40425;51.102;17.208;2022-12-07T16:50:08;4.10;99.90
40696;DHT22;40425;51.102;17.208;2022-12-07T16:55:08;3.90;99.90
40696;DHT22;40425;51.102;17.208;2022-12-07T17:00:10;3.80;99.90
40696;DHT22;40425;51.102;17.208;2022-12-07T17:05:11;3.80;99.90
40696;DHT22;40425;51.102;17.208;2022-12-07T17:10:11;3.70;99.90
40696;DHT22;40425;51.102;17.208;2022-12-07T17:15:12;3.70;99.90
40696;DHT22;40425;51.102;17.208;2022-12-07T17:20:24;3.70;99.90
40696;DHT22;40425;51.102;17.208;2022-12-07T17:25:25;3.70;99.90
40696;DHT22;40425;51.102;17.208;2022-12-07T17:30:27;3.60;99.90
40696;DHT22;40425;51.102;17.208;2022-12-07T17:35:28;3.50;99.90
40696;DHT22;40425;51.102;17.208;2022-12-07T17:40:29;3.30;99.90
40696;DHT22;40425;51.102;17.208;2022-12-07T17:45:30;3.10;99.90
40696;DHT22;40425;51.102;17.208;2022-12-07T17:50:31;2.90;99.90
40696;DHT22;40425;51.102;17.208;2022-12-07T17:55:53;2.70;99.90
40696;DHT22;40425;51.102;17.208;2022-12-07T18:00:54;2.50;99.90
40696;DHT22;40425;51.102;17.208;2022-12-07T18:05:55;2.40;99.90
40696;DHT22;40425;51.102;17.208;2022-12-07T18:11:00;2.40;99.90
40696;DHT22;40425;51.102;17.208;2022-12-07T18:16:09;2.20;99.90
40696;DHT22;40425;51.102;17.208;2022-12-07T18:21:15;2.20;99.90
40696;DHT22;40425;51.102;17.208;2022-12-07T18:26:17;2.10;99.90
40696;DHT22;40425;51.102;17.208;2022-12-07T18:31:19;2.00;99.90
40696;DHT22;40425;51.102;17.208;2022-12-07T18:36:21;2.00;99.90
40696;DHT22;40425;51.102;17.208;2022-12-07T18:41:22;1.90;99.90
40696;DHT22;40425;51.102;17.208;2022-12-07T18:46:23;1.80;99.90
40696;DHT22;40425;51.102;17.208;2022-12-07T18:51:24;1.70;99.90
40696;DHT22;40425;51.102;17.208;2022-12-07T18:56:25;1.70;99.90
40696;DHT22;40425;51.102;17.208;2022-12-07T19:01:26;1.70;99.90
40696;DHT22;40425;51.102;17.208;2022-12-07T19:06:28;1.70;99.90
40696;DHT22;40425;51.102;17.208;2022-12-07T19:11:31;1.70;99.90
40696;DHT22;40425;51.102;17.208;2022-12-07T19:16:52;1.60;99.90
40696;DHT22;40425;51.102;17.208;2022-12-07T19:21:54;1.60;99.90
40696;DHT22;40425;51.102;17.208;2022-12-07T19:26:57;1.60;99.90
40696;DHT22;40425;51.102;17.208;2022-12-07T19:32:00;1.50;99.90
40696;DHT22;40425;51.102;17.208;2022-12-07T19:37:07;1.50;99.90
40696;DHT22;40425;51.102;17.208;2022-12-07T19:42:11;1.60;99.90
40696;DHT22;40425;51.102;17.208;2022-12-07T19:47:12;1.60;99.90
40696;DHT22;40425;51.102;17.208;2022-12-07T19:52:16;1.60;99.90
40696;DHT22;40425;51.102;17.208;2022-12-07T19:57:16;1.70;99.90
40696;DHT22;40425;51.102;17.208;2022-12-07T20:02:17;1.80;99.90
40696;DHT22;40425;51.102;17.208;2022-12-07T20:07:18;1.80;99.90
40696;DHT22;40425;51.102;17.208;2022-12-07T20:12:19;1.80;99.90
40696;DHT22;40425;51.102;17.208;2022-12-07T20:17:38;1.80;99.90
40696;DHT22;40425;51.102;17.208;2022-12-07T20:22:39;1.90;99.90
40696;DHT22;40425;51.102;17.208;2022-12-07T20:27:40;1.80;99.90
40696;DHT22;40425;51.102;17.208;2022-12-07T20:32:41;1.70;99.90
40696;DHT22;40425;51.102;17.208;2022-12-07T20:37:42;1.70;99.90
40696;DHT22;40425;51.102;17.208;2022-12-07T20:42:42;1.60;99.90
40696;DHT22;40425;51.102;17.208;2022-12-07T20:47:43;1.60;99.90
40696;DHT22;40425;51.102;17.208;2022-12-07T20:52:44;1.60;99.90
40696;DHT22;40425;51.102;17.208;2022-12-07T20:57:45;1.70;99.90
40696;DHT22;40425;51.102;17.208;2022-12-07T21:02:46;1.90;99.90
40696;DHT22;40425;51.102;17.208;2022-12-07T21:07:47;2.20;99.90
40696;DHT22;40425;51.102;17.208;2022-12-07T21:12:48;2.50;99.90
40696;DHT22;40425;51.102;17.208;2022-12-07T21:17:49;2.80;99.90
40696;DHT22;40425;51.102;17.208;2022-12-07T21:22:50;3.00;99.90
40696;DHT22;40425;51.102;17.208;2022-12-07T21:27:51;3.00;99.90
40696;DHT22;40425;51.102;17.208;2022-12-07T21:32:51;3.10;99.90
40696;DHT22;40425;51.102;17.208;2022-12-07T21:37:52;3.20;99.90
40696;DHT22;40425;51.102;17.208;2022-12-07T21:42:53;3.30;99.90
40696;DHT22;40425;51.102;17.208;2022-12-07T21:47:54;3.40;99.90
40696;DHT22;40425;51.102;17.208;2022-12-07T21:52:57;3.50;99.90
40696;DHT22;40425;51.102;17.208;2022-12-07T21:57:58;3.50;99.90
40696;DHT22;40425;51.102;17.208;2022-12-07T22:02:59;3.60;99.90
40696;DHT22;40425;51.102;17.208;2022-12-07T22:08:00;3.60;99.90
40696;DHT22;40425;51.102;17.208;2022-12-07T22:13:01;3.50;99.90
40696;DHT22;40425;51.102;17.208;2022-12-07T22:18:02;3.50;99.90
40696;DHT22;40425;51.102;17.208;2022-12-07T22:23:03;3.40;99.90
40696;DHT22;40425;51.102;17.208;2022-12-07T22:28:03;3.20;99.90
40696;DHT22;40425;51.102;17.208;2022-12-07T22:33:04;3.20;99.90
40696;DHT22;40425;51.102;17.208;2022-12-07T22:38:05;3.20;99.90
40696;DHT22;40425;51.102;17.208;2022-12-07T22:43:06;3.10;99.90
40696;DHT22;40425;51.102;17.208;2022-12-07T22:48:07;3.10;99.90
40696;DHT22;40425;51.102;17.208;2022-12-07T22:53:08;3.20;99.90
40696;DHT22;40425;51.102;17.208;2022-12-07T22:58:09;3.20;99.90
40696;DHT22;40425;51.102;17.208;2022-12-07T23:03:11;3.30;99.90
40696;DHT22;40425;51.102;17.208;2022-12-07T23:08:13;3.30;99.90
40696;DHT22;40425;51.102;17.208;2022-12-07T23:13:16;3.30;99.90
40696;DHT22;40425;51.102;17.208;2022-12-07T23:18:32;3.30;99.90
40696;DHT22;40425;51.102;17.208;2022-12-07T23:23:33;3.30;99.90
40696;DHT22;40425;51.102;17.208;2022-12-07T23:28:36;3.20;99.90
40696;DHT22;40425;51.102;17.208;2022-12-07T23:33:37;3.30;99.90
40696;DHT22;40425;51.102;17.208;2022-12-07T23:38:39;3.40;99.90
40696;DHT22;40425;51.102;17.208;2022-12-07T23:43:41;3.50;99.90
40696;DHT22;40425;51.102;17.208;2022-12-07T23:48:42;3.50;99.90
40696;DHT22;40425;51.102;17.208;2022-12-07T23:53:47;3.30;99.90
40696;DHT22;40425;51.102;17.208;2022-12-07T23:58:49;3.30;99.90
